Terminal Aerodrome Forecast
Issued by NWS Birmingham, AL

Home | Current Version | Previous Version | Text Only | Print | Product List | Glossary On
Versions: 1 2 3 4 5 6 7 8 9 10 11 12 13 14
294
FTUS44 KBMX 110048 CCA
TAFBHM
TAF COR
KBHM 110048Z 1100/1124 26010KT P6SM SKC
     FM110200 24005KT P6SM SKC=

USA.gov is the U.S. government's official web portal to all federal, state and local government web resources and services.